Time;durP1;ratioP1;P1;durP2;ratioP2;P2;SDS_P1;SDS_P2;PMS_P1;PMS_P2;Temp;Humidity;BMP_temperature;BMP_pressure;BME280_temperature;BME280_humidity;BME280_pressure;Samples;Min_cycle;Max_cycle;Signal;HPM_P1;HPM_P2
2024/01/24 00:02:21;;;;;;;5.07;1.70;;;;;;;;;;5015455;28;20418;-63
2024/01/24 00:04:46;;;;;;;6.23;1.70;;;;;;;;;;5019482;28;20410;-63
2024/01/24 00:07:12;;;;;;;6.47;1.60;;;;;;;;;;5023008;28;20410;-63
2024/01/24 00:09:37;;;;;;;6.68;1.60;;;;;;;;;;5023957;28;20498;-63
2024/01/24 00:12:02;;;;;;;6.10;1.60;;;;;;;;;;5023147;28;20403;-64
2024/01/24 00:14:28;;;;;;;4.83;1.57;;;;;;;;;;5038850;28;20810;-63
2024/01/24 00:16:53;;;;;;;4.83;1.47;;;;;;;;;;5024164;28;20415;-63
2024/01/24 00:19:18;;;;;;;6.03;1.40;;;;;;;;;;5021883;28;20392;-63
2024/01/24 00:21:43;;;;;;;4.13;1.10;;;;;;;;;;5014781;28;20403;-63
2024/01/24 00:24:09;;;;;;;4.03;1.10;;;;;;;;;;5014962;28;20426;-63
2024/01/24 00:26:38;;;;;;;4.17;1.43;;;;;;;;;;5016273;28;20410;-63
2024/01/24 00:29:03;;;;;;;4.88;1.30;;;;;;;;;;5041752;28;20436;-63
2024/01/24 00:31:28;;;;;;;3.93;1.27;;;;;;;;;;5042813;28;20422;-63
2024/01/24 00:33:54;;;;;;;4.40;1.20;;;;;;;;;;5042592;28;20405;-63
2024/01/24 00:36:19;;;;;;;4.13;1.10;;;;;;;;;;5041419;28;20406;-63
2024/01/24 00:38:44;;;;;;;3.13;1.00;;;;;;;;;;5037609;28;20395;-63
2024/01/24 00:41:09;;;;;;;4.13;1.23;;;;;;;;;;5022881;28;20411;-63
2024/01/24 00:43:35;;;;;;;4.70;1.10;;;;;;;;;;5016199;28;20474;-63
2024/01/24 00:46:00;;;;;;;4.23;1.20;;;;;;;;;;5015268;28;20407;-64
2024/01/24 00:48:25;;;;;;;3.20;1.00;;;;;;;;;;5015216;28;20406;-63
2024/01/24 00:50:51;;;;;;;3.03;0.80;;;;;;;;;;5039850;28;21414;-63
2024/01/24 00:53:19;;;;;;;3.57;0.90;;;;;;;;;;5042219;28;21289;-63
2024/01/24 00:55:44;;;;;;;2.97;0.90;;;;;;;;;;5022306;28;20410;-63
2024/01/24 00:58:10;;;;;;;2.63;0.80;;;;;;;;;;5036460;28;20398;-63
2024/01/24 01:00:35;;;;;;;2.33;0.70;;;;;;;;;;5041491;28;20437;-63
2024/01/24 01:03:00;;;;;;;2.37;0.63;;;;;;;;;;5021318;28;20810;-63
2024/01/24 01:05:26;;;;;;;2.37;0.70;;;;;;;;;;5018995;28;20398;-63
2024/01/24 01:07:51;;;;;;;3.03;0.80;;;;;;;;;;5015011;28;20407;-65
2024/01/24 01:10:16;;;;;;;1.90;0.90;;;;;;;;;;5013808;28;20434;-65
2024/01/24 01:12:42;;;;;;;2.30;0.70;;;;;;;;;;5017883;28;20399;-65
2024/01/24 01:15:07;;;;;;;1.37;0.60;;;;;;;;;;5022682;28;20415;-65
2024/01/24 01:17:33;;;;;;;2.60;0.60;;;;;;;;;;5022471;28;20395;-65
2024/01/24 01:19:58;;;;;;;2.37;0.80;;;;;;;;;;5031470;28;20395;-65
2024/01/24 01:22:23;;;;;;;1.20;0.50;;;;;;;;;;5021591;28;20399;-66
2024/01/24 01:24:48;;;;;;;2.33;0.90;;;;;;;;;;5021667;28;20433;-66
2024/01/24 01:27:14;;;;;;;0.93;0.60;;;;;;;;;;5021304;28;20407;-66
2024/01/24 01:29:39;;;;;;;1.43;0.60;;;;;;;;;;5014927;28;20493;-66
2024/01/24 01:32:05;;;;;;;2.53;0.70;;;;;;;;;;5032480;28;20389;-66
2024/01/24 01:34:30;;;;;;;1.50;0.50;;;;;;;;;;5017285;28;20401;-67
2024/01/24 01:36:56;;;;;;;2.10;0.60;;;;;;;;;;5041024;28;20413;-67
2024/01/24 01:39:21;;;;;;;1.70;0.60;;;;;;;;;;5030291;28;20400;-67
2024/01/24 01:41:48;;;;;;;1.80;0.80;;;;;;;;;;5022414;28;20933;-67
2024/01/24 01:44:14;;;;;;;1.47;0.80;;;;;;;;;;5021859;28;20410;-67
2024/01/24 01:46:39;;;;;;;2.05;0.70;;;;;;;;;;5021678;28;20551;-68
2024/01/24 01:49:05;;;;;;;2.00;0.80;;;;;;;;;;5036832;28;20482;-68
2024/01/24 01:51:30;;;;;;;1.00;0.60;;;;;;;;;;5016588;28;21068;-67
2024/01/24 01:53:55;;;;;;;1.60;0.60;;;;;;;;;;5013037;28;20902;-67
2024/01/24 01:56:21;;;;;;;1.90;0.70;;;;;;;;;;5014381;28;20415;-67
2024/01/24 01:58:46;;;;;;;1.25;0.68;;;;;;;;;;5034928;28;20395;-67
2024/01/24 02:01:12;;;;;;;1.60;0.60;;;;;;;;;;5020978;28;20409;-67
2024/01/24 02:03:37;;;;;;;1.50;0.63;;;;;;;;;;5021990;28;20747;-67
2024/01/24 02:06:03;;;;;;;1.30;0.67;;;;;;;;;;5039398;28;20397;-66
2024/01/24 02:08:28;;;;;;;1.10;0.80;;;;;;;;;;5019934;28;20890;-67
2024/01/24 02:10:54;;;;;;;1.45;0.70;;;;;;;;;;5021750;28;20403;-67
2024/01/24 02:13:20;;;;;;;2.70;1.00;;;;;;;;;;5017500;28;20410;-67
2024/01/24 02:15:45;;;;;;;0.93;0.63;;;;;;;;;;5029213;28;20399;-68
2024/01/24 02:18:10;;;;;;;1.00;0.80;;;;;;;;;;5013750;28;20434;-67
2024/01/24 02:20:36;;;;;;;1.00;0.80;;;;;;;;;;5016003;28;20742;-67
2024/01/24 02:23:02;;;;;;;0.95;0.65;;;;;;;;;;5020538;28;20400;-68
2024/01/24 02:25:27;;;;;;;1.10;0.70;;;;;;;;;;5021295;28;20423;-67
2024/01/24 02:27:53;;;;;;;2.00;0.90;;;;;;;;;;5020606;28;20442;-67
2024/01/24 02:30:18;;;;;;;1.90;0.90;;;;;;;;;;5021120;28;20916;-66
2024/01/24 02:32:43;;;;;;;1.40;0.80;;;;;;;;;;5021246;28;20414;-66
2024/01/24 02:35:09;;;;;;;1.20;0.80;;;;;;;;;;5019910;28;20924;-66
2024/01/24 02:37:34;;;;;;;1.60;0.80;;;;;;;;;;5047327;28;20457;-66
2024/01/24 02:39:59;;;;;;;1.30;0.80;;;;;;;;;;5017658;28;20395;-67
2024/01/24 02:42:24;;;;;;;1.00;0.70;;;;;;;;;;5012476;28;20780;-66
2024/01/24 02:44:50;;;;;;;1.67;0.80;;;;;;;;;;5021181;28;20415;-67
2024/01/24 02:47:16;;;;;;;1.90;1.10;;;;;;;;;;5020629;28;20796;-67
2024/01/24 02:49:42;;;;;;;1.00;0.70;;;;;;;;;;5039551;28;20397;-67
2024/01/24 02:52:07;;;;;;;0.90;0.70;;;;;;;;;;5039867;28;20396;-67
2024/01/24 02:54:32;;;;;;;1.30;0.70;;;;;;;;;;5040433;28;20413;-67
2024/01/24 02:56:58;;;;;;;0.83;0.70;;;;;;;;;;5040115;28;20455;-67
2024/01/24 02:59:23;;;;;;;1.17;0.60;;;;;;;;;;5016966;28;20745;-67
2024/01/24 03:01:48;;;;;;;0.67;0.50;;;;;;;;;;5022036;28;20478;-66
2024/01/24 03:04:14;;;;;;;1.60;0.60;;;;;;;;;;4993886;28;20426;-66
2024/01/24 03:06:41;;;;;;;1.40;0.80;;;;;;;;;;5034063;28;20431;-66
2024/01/24 03:09:07;;;;;;;1.35;0.70;;;;;;;;;;5021464;28;20887;-66
2024/01/24 03:11:32;;;;;;;0.93;0.63;;;;;;;;;;5025199;28;20938;-65
2024/01/24 03:13:57;;;;;;;1.57;0.80;;;;;;;;;;5048180;28;20412;-65
2024/01/24 03:16:23;;;;;;;1.03;0.50;;;;;;;;;;5049498;28;20381;-65
2024/01/24 03:18:48;;;;;;;2.38;0.80;;;;;;;;;;5035721;28;20399;-65
2024/01/24 03:21:14;;;;;;;2.20;0.80;;;;;;;;;;5020609;28;20850;-66
2024/01/24 03:23:40;;;;;;;3.78;0.95;;;;;;;;;;5019454;28;20836;-66
2024/01/24 03:26:06;;;;;;;3.50;1.00;;;;;;;;;;5023855;28;20435;-65
2024/01/24 03:28:32;;;;;;;3.05;1.10;;;;;;;;;;5021525;28;20406;-65
2024/01/24 03:30:58;;;;;;;2.17;0.80;;;;;;;;;;5051188;28;21024;-66
2024/01/24 03:33:23;;;;;;;2.17;0.73;;;;;;;;;;5035742;28;20428;-65
2024/01/24 03:35:49;;;;;;;2.50;0.90;;;;;;;;;;5038966;28;20483;-65
2024/01/24 03:38:14;;;;;;;3.97;0.90;;;;;;;;;;5042777;28;20389;-65
2024/01/24 03:40:40;;;;;;;4.07;0.90;;;;;;;;;;5043732;28;20401;-66
2024/01/24 03:43:05;;;;;;;5.67;1.33;;;;;;;;;;5043921;28;20401;-65
2024/01/24 03:45:31;;;;;;;4.63;1.20;;;;;;;;;;5029561;28;20442;-65
2024/01/24 03:47:56;;;;;;;4.63;1.10;;;;;;;;;;5024568;28;20402;-65
2024/01/24 03:50:21;;;;;;;5.50;1.20;;;;;;;;;;5022608;28;20418;-65
2024/01/24 03:52:46;;;;;;;5.37;1.23;;;;;;;;;;5016070;28;20407;-65
2024/01/24 03:55:12;;;;;;;6.77;1.40;;;;;;;;;;5015299;28;20403;-65
2024/01/24 03:57:37;;;;;;;6.50;1.43;;;;;;;;;;5016795;28;21324;-65
2024/01/24 04:00:05;;;;;;;8.20;1.60;;;;;;;;;;5004975;28;20388;-65
2024/01/24 04:02:31;;;;;;;9.15;1.42;;;;;;;;;;5027196;28;20387;-65
2024/01/24 04:04:56;;;;;;;7.63;1.33;;;;;;;;;;5024176;28;20481;-65
2024/01/24 04:07:21;;;;;;;6.97;1.50;;;;;;;;;;5023044;28;20419;-65
2024/01/24 04:09:46;;;;;;;10.40;1.80;;;;;;;;;;5023685;28;20413;-65
2024/01/24 04:12:12;;;;;;;8.93;1.67;;;;;;;;;;5023108;28;20486;-65
2024/01/24 04:14:37;;;;;;;8.10;1.60;;;;;;;;;;5018014;28;20950;-65
2024/01/24 04:17:02;;;;;;;11.50;2.20;;;;;;;;;;5015637;28;20524;-65
2024/01/24 04:19:29;;;;;;;9.38;1.77;;;;;;;;;;5015729;28;20403;-65
2024/01/24 04:21:54;;;;;;;9.43;1.90;;;;;;;;;;5021133;28;20407;-65
2024/01/24 04:24:20;;;;;;;10.60;2.30;;;;;;;;;;5041802;28;20394;-65
2024/01/24 04:26:45;;;;;;;12.48;2.40;;;;;;;;;;5042564;28;20398;-65
2024/01/24 04:29:10;;;;;;;11.50;2.20;;;;;;;;;;5042485;28;20401;-65
2024/01/24 04:31:36;;;;;;;11.33;2.40;;;;;;;;;;5043380;28;20957;-65
2024/01/24 04:34:01;;;;;;;15.17;3.17;;;;;;;;;;5041604;28;20429;-65
2024/01/24 04:36:26;;;;;;;12.33;2.90;;;;;;;;;;5038269;28;21316;-65
2024/01/24 04:38:52;;;;;;;12.30;3.10;;;;;;;;;;5035163;28;20400;-65
2024/01/24 04:41:17;;;;;;;14.83;2.80;;;;;;;;;;5033927;28;21053;-65
2024/01/24 04:43:42;;;;;;;17.93;3.60;;;;;;;;;;5038298;28;20734;-65
2024/01/24 04:46:14;;;;;;;16.63;3.33;;;;;;;;;;5024271;28;20406;-64
2024/01/24 04:48:40;;;;;;;17.10;3.60;;;;;;;;;;5040977;28;20405;-64
2024/01/24 04:51:05;;;;;;;19.85;3.70;;;;;;;;;;5022848;28;20728;-64
2024/01/24 04:53:30;;;;;;;18.07;3.30;;;;;;;;;;5022882;28;20431;-64
2024/01/24 04:55:55;;;;;;;20.33;4.00;;;;;;;;;;5022257;28;20457;-64
2024/01/24 04:58:21;;;;;;;16.42;4.20;;;;;;;;;;5021003;28;20395;-64
2024/01/24 05:00:47;;;;;;;18.57;3.70;;;;;;;;;;5015825;28;20434;-64
2024/01/24 05:03:14;;;;;;;17.33;3.90;;;;;;;;;;5033129;28;20488;-64
2024/01/24 05:05:40;;;;;;;19.88;4.05;;;;;;;;;;5035894;28;20495;-64
2024/01/24 05:08:06;;;;;;;20.42;4.10;;;;;;;;;;5030023;28;20441;-64
2024/01/24 05:10:31;;;;;;;19.53;4.30;;;;;;;;;;5021791;28;20407;-64
2024/01/24 05:12:56;;;;;;;22.60;4.57;;;;;;;;;;5022392;28;20407;-64
2024/01/24 05:15:21;;;;;;;21.07;4.17;;;;;;;;;;5041226;28;20385;-64
2024/01/24 05:17:47;;;;;;;20.57;4.27;;;;;;;;;;5033499;28;20398;-64
2024/01/24 05:20:12;;;;;;;20.07;4.33;;;;;;;;;;5022069;28;20973;-64
2024/01/24 05:22:37;;;;;;;21.20;4.40;;;;;;;;;;5016513;28;20504;-64
2024/01/24 05:25:03;;;;;;;20.70;4.27;;;;;;;;;;5013359;28;21506;-64
2024/01/24 05:27:28;;;;;;;20.80;4.60;;;;;;;;;;5032978;28;20393;-64
2024/01/24 05:29:53;;;;;;;22.77;4.70;;;;;;;;;;5040213;28;20797;-65
2024/01/24 05:32:19;;;;;;;21.97;4.83;;;;;;;;;;5041366;28;20409;-64
2024/01/24 05:34:44;;;;;;;21.23;4.77;;;;;;;;;;5041791;28;20478;-64
2024/01/24 05:37:09;;;;;;;23.90;5.40;;;;;;;;;;5040391;28;20942;-64
2024/01/24 05:39:34;;;;;;;25.53;5.03;;;;;;;;;;5041850;28;21176;-64
2024/01/24 05:42:00;;;;;;;23.47;5.03;;;;;;;;;;5041278;28;20574;-64
2024/01/24 05:44:25;;;;;;;22.80;4.68;;;;;;;;;;5032299;28;20398;-64
2024/01/24 05:46:50;;;;;;;22.97;5.20;;;;;;;;;;5013993;28;20489;-64
2024/01/24 05:49:16;;;;;;;24.13;5.63;;;;;;;;;;5013408;28;20399;-64
2024/01/24 05:51:42;;;;;;;26.00;5.00;;;;;;;;;;5017073;28;20970;-64
2024/01/24 05:54:07;;;;;;;27.35;5.25;;;;;;;;;;5036490;28;20429;-64
2024/01/24 05:56:33;;;;;;;29.30;5.47;;;;;;;;;;5021775;28;20395;-64
2024/01/24 05:58:58;;;;;;;23.58;5.25;;;;;;;;;;5020868;28;20400;-64
2024/01/24 06:01:23;;;;;;;26.27;5.57;;;;;;;;;;5021647;28;20462;-64
2024/01/24 06:03:49;;;;;;;21.87;5.00;;;;;;;;;;5021243;28;20898;-64
2024/01/24 06:06:14;;;;;;;26.57;5.50;;;;;;;;;;5019512;28;20790;-64
2024/01/24 06:08:39;;;;;;;24.40;5.00;;;;;;;;;;5013813;28;20430;-64
2024/01/24 06:11:05;;;;;;;26.10;5.53;;;;;;;;;;5013350;28;20494;-64
2024/01/24 06:13:30;;;;;;;26.53;5.53;;;;;;;;;;5013254;28;20411;-64
2024/01/24 06:15:56;;;;;;;23.13;5.43;;;;;;;;;;5021900;28;20408;-64
2024/01/24 06:18:21;;;;;;;30.45;6.30;;;;;;;;;;5027144;28;20478;-64
2024/01/24 06:20:47;;;;;;;29.30;5.50;;;;;;;;;;5021111;28;20403;-64
2024/01/24 06:23:12;;;;;;;27.83;6.10;;;;;;;;;;5040153;28;20765;-64
2024/01/24 06:25:38;;;;;;;25.80;5.40;;;;;;;;;;5040808;28;20413;-64
2024/01/24 06:28:03;;;;;;;30.90;6.13;;;;;;;;;;5039490;28;20393;-64
2024/01/24 06:30:28;;;;;;;26.70;6.00;;;;;;;;;;5034425;28;20412;-64
2024/01/24 06:32:54;;;;;;;24.70;5.57;;;;;;;;;;5033029;28;20414;-64
2024/01/24 06:35:19;;;;;;;30.70;6.00;;;;;;;;;;5014691;28;20485;-64
2024/01/24 06:37:45;;;;;;;26.90;6.13;;;;;;;;;;5019852;28;20965;-64
2024/01/24 06:40:10;;;;;;;28.80;6.20;;;;;;;;;;5020269;28;20399;-64
2024/01/24 06:42:37;;;;;;;24.87;5.90;;;;;;;;;;5020832;28;20426;-64
2024/01/24 06:45:03;;;;;;;29.97;6.23;;;;;;;;;;5022637;28;20748;-64
2024/01/24 06:47:28;;;;;;;25.55;6.13;;;;;;;;;;5039522;28;20593;-64
2024/01/24 06:49:53;;;;;;;26.70;6.00;;;;;;;;;;5040797;28;20749;-64
2024/01/24 06:52:19;;;;;;;30.67;6.47;;;;;;;;;;5036205;28;20690;-63
2024/01/24 06:54:44;;;;;;;27.23;6.13;;;;;;;;;;5014202;28;20448;-63
2024/01/24 06:57:09;;;;;;;30.50;6.07;;;;;;;;;;5031560;28;20407;-64
2024/01/24 06:59:35;;;;;;;30.43;6.33;;;;;;;;;;5035235;28;20897;-63
2024/01/24 07:02:00;;;;;;;34.27;6.57;;;;;;;;;;5027086;28;20410;-64
2024/01/24 07:04:25;;;;;;;32.65;6.78;;;;;;;;;;5020394;28;20443;-65
2024/01/24 07:06:50;;;;;;;29.37;6.70;;;;;;;;;;5020609;28;20767;-64
2024/01/24 07:09:16;;;;;;;32.70;6.57;;;;;;;;;;5019654;28;20486;-64
2024/01/24 07:11:41;;;;;;;31.53;7.50;;;;;;;;;;5020836;28;20419;-64
2024/01/24 07:14:07;;;;;;;33.10;6.25;;;;;;;;;;5019457;28;20469;-64
2024/01/24 07:16:32;;;;;;;30.77;6.87;;;;;;;;;;5012352;28;20494;-65
2024/01/24 07:18:57;;;;;;;32.90;9.10;;;;;;;;;;5012774;28;20395;-65
2024/01/24 07:21:24;;;;;;;31.07;7.10;;;;;;;;;;5012619;28;20406;-64
2024/01/24 07:23:49;;;;;;;31.40;6.15;;;;;;;;;;5019443;28;20739;-65
2024/01/24 07:26:14;;;;;;;34.40;7.47;;;;;;;;;;5020225;28;20441;-64
2024/01/24 07:28:40;;;;;;;30.20;7.27;;;;;;;;;;5020319;28;20430;-65
2024/01/24 07:31:06;;;;;;;31.30;6.73;;;;;;;;;;5019238;28;20421;-64
2024/01/24 07:33:31;;;;;;;32.42;7.80;;;;;;;;;;5020127;28;20477;-65
2024/01/24 07:35:56;;;;;;;30.90;6.53;;;;;;;;;;5020676;28;20383;-64
2024/01/24 07:38:21;;;;;;;33.97;6.83;;;;;;;;;;5013757;28;20403;-64
2024/01/24 07:40:47;;;;;;;30.23;7.00;;;;;;;;;;5012861;28;20403;-64
2024/01/24 07:43:12;;;;;;;32.67;7.13;;;;;;;;;;5031340;28;20524;-64
2024/01/24 07:45:37;;;;;;;35.90;6.63;;;;;;;;;;5023028;28;20399;-65
2024/01/24 07:48:03;;;;;;;31.00;6.60;;;;;;;;;;5016171;28;20514;-64
2024/01/24 07:50:28;;;;;;;27.73;6.27;;;;;;;;;;5020184;28;20728;-64
2024/01/24 07:52:53;;;;;;;32.92;6.60;;;;;;;;;;5019542;28;20423;-64
2024/01/24 07:55:18;;;;;;;32.40;6.43;;;;;;;;;;5038907;28;20396;-64
2024/01/24 07:57:44;;;;;;;27.53;6.40;;;;;;;;;;5034624;28;20460;-64
2024/01/24 08:00:16;;;;;;;32.23;6.57;;;;;;;;;;5017054;28;20387;-64
2024/01/24 08:02:42;;;;;;;35.67;7.20;;;;;;;;;;5047188;28;20400;-63
2024/01/24 08:05:07;;;;;;;35.35;7.53;;;;;;;;;;5047409;28;20885;-64
2024/01/24 08:07:33;;;;;;;37.20;7.30;;;;;;;;;;5044172;28;20391;-64
2024/01/24 08:09:58;;;;;;;38.25;7.78;;;;;;;;;;5012461;28;20414;-63
2024/01/24 08:12:23;;;;;;;34.23;6.73;;;;;;;;;;5032553;28;20735;-64
2024/01/24 08:14:49;;;;;;;31.83;6.70;;;;;;;;;;5048990;28;20429;-64
2024/01/24 08:17:14;;;;;;;33.23;7.03;;;;;;;;;;5052399;28;20410;-64
2024/01/24 08:19:39;;;;;;;30.58;6.40;;;;;;;;;;5033652;28;20950;-63
2024/01/24 08:22:05;;;;;;;33.90;6.87;;;;;;;;;;5034486;28;20408;-64
2024/01/24 08:24:30;;;;;;;33.90;6.67;;;;;;;;;;5053340;28;20405;-63
2024/01/24 08:26:56;;;;;;;32.85;6.90;;;;;;;;;;5052608;28;20478;-64
2024/01/24 08:29:21;;;;;;;29.87;6.53;;;;;;;;;;5052400;28;20472;-63
2024/01/24 08:31:46;;;;;;;35.17;7.07;;;;;;;;;;5052624;28;20492;-63
2024/01/24 08:34:12;;;;;;;32.47;6.80;;;;;;;;;;5051547;28;20497;-64
2024/01/24 08:36:38;;;;;;;32.70;6.70;;;;;;;;;;5052156;28;20394;-63
2024/01/24 08:39:06;;;;;;;31.20;6.80;;;;;;;;;;5052112;28;20770;-64
2024/01/24 08:41:31;;;;;;;36.55;6.95;;;;;;;;;;5050101;28;20390;-63
2024/01/24 08:43:57;;;;;;;33.78;6.65;;;;;;;;;;5052658;28;20746;-63
2024/01/24 08:46:23;;;;;;;33.50;7.45;;;;;;;;;;5049174;28;20397;-63
2024/01/24 08:48:48;;;;;;;32.63;7.33;;;;;;;;;;5051805;28;20402;-63
2024/01/24 08:51:13;;;;;;;28.43;6.57;;;;;;;;;;5051546;28;20429;-63
2024/01/24 08:53:39;;;;;;;29.73;6.87;;;;;;;;;;5052451;28;20398;-63
2024/01/24 08:56:04;;;;;;;30.98;6.50;;;;;;;;;;5051328;28;20397;-64
2024/01/24 08:58:30;;;;;;;30.13;6.63;;;;;;;;;;5052497;28;20410;-63
2024/01/24 09:00:55;;;;;;;33.97;6.50;;;;;;;;;;5050986;28;20397;-63
2024/01/24 09:03:20;;;;;;;30.05;6.38;;;;;;;;;;5051661;28;20488;-63
2024/01/24 09:05:45;;;;;;;30.33;6.50;;;;;;;;;;5051667;28;20400;-63
2024/01/24 09:08:11;;;;;;;33.40;6.30;;;;;;;;;;5052073;28;21133;-64
2024/01/24 09:10:36;;;;;;;29.27;6.37;;;;;;;;;;5055586;28;20880;-63
2024/01/24 09:13:01;;;;;;;29.13;6.60;;;;;;;;;;5051819;28;20459;-64
2024/01/24 09:15:27;;;;;;;32.67;6.73;;;;;;;;;;5051226;28;20409;-63
2024/01/24 09:17:52;;;;;;;29.00;6.50;;;;;;;;;;5052267;28;20386;-63
2024/01/24 09:20:17;;;;;;;31.10;6.57;;;;;;;;;;5051426;28;20451;-63
2024/01/24 09:22:43;;;;;;;27.53;6.63;;;;;;;;;;5050672;28;20402;-63
2024/01/24 09:25:08;;;;;;;28.70;6.20;;;;;;;;;;5051723;28;20501;-63
2024/01/24 09:27:34;;;;;;;29.63;6.30;;;;;;;;;;5051630;28;20833;-63
2024/01/24 09:29:59;;;;;;;24.03;5.67;;;;;;;;;;5051459;28;20455;-63
2024/01/24 09:32:24;;;;;;;29.90;6.30;;;;;;;;;;5051274;28;20390;-63
2024/01/24 09:34:49;;;;;;;29.07;6.97;;;;;;;;;;5052170;28;20447;-63
2024/01/24 09:37:15;;;;;;;26.70;6.03;;;;;;;;;;5050348;28;20397;-63
2024/01/24 09:39:40;;;;;;;29.20;6.70;;;;;;;;;;5051956;28;20397;-63
2024/01/24 09:42:07;;;;;;;29.03;5.90;;;;;;;;;;5051508;28;20485;-63
2024/01/24 09:44:32;;;;;;;29.92;5.88;;;;;;;;;;5033160;28;20485;-63
2024/01/24 09:46:58;;;;;;;26.92;6.22;;;;;;;;;;5033923;28;20481;-63
2024/01/24 09:49:23;;;;;;;27.37;6.30;;;;;;;;;;5033714;28;20378;-64
2024/01/24 09:51:48;;;;;;;25.07;5.80;;;;;;;;;;5050636;28;20425;-63
2024/01/24 09:54:14;;;;;;;29.17;6.30;;;;;;;;;;5033611;28;20436;-63
2024/01/24 09:56:40;;;;;;;26.07;6.13;;;;;;;;;;5038660;28;20418;-63
2024/01/24 09:59:06;;;;;;;29.48;6.35;;;;;;;;;;5032167;28;20406;-64
2024/01/24 10:01:33;;;;;;;25.33;5.80;;;;;;;;;;5051402;28;20400;-63
2024/01/24 10:03:59;;;;;;;27.25;6.10;;;;;;;;;;5051530;28;20402;-63
2024/01/24 10:06:24;;;;;;;26.80;6.05;;;;;;;;;;5032289;28;20480;-63
2024/01/24 10:08:49;;;;;;;26.10;5.67;;;;;;;;;;5051184;28;20871;-63
2024/01/24 10:11:15;;;;;;;29.03;5.90;;;;;;;;;;5049876;28;20417;-63
2024/01/24 10:13:40;;;;;;;27.10;5.93;;;;;;;;;;5051146;28;20418;-63
2024/01/24 10:16:07;;;;;;;28.35;6.32;;;;;;;;;;5051019;28;21036;-63
2024/01/24 10:18:32;;;;;;;27.55;5.40;;;;;;;;;;5049269;28;20396;-63
2024/01/24 10:20:58;;;;;;;29.47;5.87;;;;;;;;;;5071024;28;20395;-62
2024/01/24 10:23:23;;;;;;;25.70;6.17;;;;;;;;;;5067414;28;20417;-63
2024/01/24 10:25:48;;;;;;;25.33;4.80;;;;;;;;;;5049898;28;20476;-63
2024/01/24 10:28:14;;;;;;;27.47;5.83;;;;;;;;;;5048510;28;20405;-64
2024/01/24 10:30:40;;;;;;;25.13;5.68;;;;;;;;;;5050839;28;20401;-63
2024/01/24 10:33:06;;;;;;;24.07;6.00;;;;;;;;;;5031688;28;20486;-63
2024/01/24 10:35:31;;;;;;;27.63;6.28;;;;;;;;;;5050838;28;20754;-63
2024/01/24 10:37:56;;;;;;;28.60;5.50;;;;;;;;;;5050954;28;20382;-63
2024/01/24 10:40:22;;;;;;;24.33;5.47;;;;;;;;;;5049834;28;20425;-62
2024/01/24 10:42:48;;;;;;;26.13;6.00;;;;;;;;;;5050551;28;20468;-62
2024/01/24 10:45:15;;;;;;;30.38;6.18;;;;;;;;;;5050340;28;20402;-62
2024/01/24 10:47:40;;;;;;;25.17;5.85;;;;;;;;;;5032312;28;20481;-62
2024/01/24 10:50:09;;;;;;;25.30;6.03;;;;;;;;;;5049824;28;20480;-62
2024/01/24 10:52:34;;;;;;;27.95;6.20;;;;;;;;;;5050753;28;20429;-61
2024/01/24 10:55:05;;;;;;;24.50;5.40;;;;;;;;;;5049161;28;20940;-61
2024/01/24 10:57:32;;;;;;;25.55;5.70;;;;;;;;;;5050353;28;20397;-62
2024/01/24 10:59:57;;;;;;;26.33;5.77;;;;;;;;;;5050971;28;20397;-62
2024/01/24 11:02:23;;;;;;;29.50;6.63;;;;;;;;;;5048904;28;20393;-62
2024/01/24 11:04:49;;;;;;;23.40;5.30;;;;;;;;;;5049975;28;20393;-62
2024/01/24 11:07:14;;;;;;;28.35;6.20;;;;;;;;;;5032602;28;20401;-62
2024/01/24 11:09:45;;;;;;;28.27;6.03;;;;;;;;;;5032157;28;20397;-62
2024/01/24 11:12:11;;;;;;;25.50;5.70;;;;;;;;;;5031922;28;20531;-62
2024/01/24 11:14:36;;;;;;;26.60;5.80;;;;;;;;;;5049124;28;20484;-62
2024/01/24 11:17:03;;;;;;;27.80;5.93;;;;;;;;;;5032253;28;20447;-63
2024/01/24 11:19:28;;;;;;;25.75;5.40;;;;;;;;;;5049407;28;20896;-62
2024/01/24 11:21:54;;;;;;;28.77;5.57;;;;;;;;;;5049735;28;20425;-62
2024/01/24 11:24:43;;;;;;;25.58;5.97;;;;;;;;;;5050123;28;20406;-62
2024/01/24 11:27:27;;;;;;;27.98;5.90;;;;;;;;;;5049883;28;20404;-63
2024/01/24 11:29:52;;;;;;;26.43;5.77;;;;;;;;;;5049412;28;20458;-62
2024/01/24 11:32:37;;;;;;;28.08;5.65;;;;;;;;;;5049933;28;20492;-62
2024/01/24 11:35:20;;;;;;;26.48;5.72;;;;;;;;;;5049103;28;20764;-63
2024/01/24 11:37:46;;;;;;;25.33;5.87;;;;;;;;;;5049511;28;20455;-62
2024/01/24 11:40:11;;;;;;;29.63;6.15;;;;;;;;;;5032150;28;20410;-62
2024/01/24 11:42:42;;;;;;;24.40;5.80;;;;;;;;;;5049972;28;20444;-62
2024/01/24 11:45:13;;;;;;;27.05;5.78;;;;;;;;;;5049847;28;20401;-62
2024/01/24 11:47:38;;;;;;;26.80;5.53;;;;;;;;;;5054041;28;20396;-62
2024/01/24 11:50:04;;;;;;;25.38;5.07;;;;;;;;;;5052371;28;20476;-62
2024/01/24 11:52:29;;;;;;;23.73;5.80;;;;;;;;;;5054009;28;20405;-62
2024/01/24 11:54:55;;;;;;;25.63;5.70;;;;;;;;;;5063953;28;20404;-62
2024/01/24 11:57:20;;;;;;;27.00;5.70;;;;;;;;;;5060625;28;20880;-62
2024/01/24 11:59:45;;;;;;;29.65;6.05;;;;;;;;;;5053838;28;20389;-62
2024/01/24 12:02:11;;;;;;;25.90;5.60;;;;;;;;;;5055598;28;20392;-62
2024/01/24 12:04:36;;;;;;;24.83;5.40;;;;;;;;;;5055171;28;20480;-62
2024/01/24 12:07:01;;;;;;;24.60;5.37;;;;;;;;;;5052846;28;20397;-63
2024/01/24 12:09:27;;;;;;;23.40;5.33;;;;;;;;;;5053834;28;20397;-62
2024/01/24 12:11:52;;;;;;;31.00;5.70;;;;;;;;;;5052820;28;20904;-62
2024/01/24 12:14:17;;;;;;;22.57;5.40;;;;;;;;;;5052604;28;20409;-62
2024/01/24 12:16:42;;;;;;;23.87;5.63;;;;;;;;;;5035197;28;20413;-62
2024/01/24 12:19:08;;;;;;;25.87;5.67;;;;;;;;;;5033463;28;20402;-63
2024/01/24 12:21:33;;;;;;;24.60;5.23;;;;;;;;;;5053451;28;20397;-62
2024/01/24 12:23:59;;;;;;;23.63;5.05;;;;;;;;;;5053292;28;20432;-62
2024/01/24 12:26:25;;;;;;;21.63;5.37;;;;;;;;;;5052299;28;20381;-62
2024/01/24 12:28:50;;;;;;;23.77;4.85;;;;;;;;;;5053149;28;20401;-62
2024/01/24 12:31:16;;;;;;;24.00;5.83;;;;;;;;;;5052793;28;20901;-62
2024/01/24 12:33:41;;;;;;;22.77;5.33;;;;;;;;;;5052622;28;20421;-62
2024/01/24 12:36:06;;;;;;;26.13;5.30;;;;;;;;;;5052350;28;20804;-62
2024/01/24 12:38:33;;;;;;;24.53;5.20;;;;;;;;;;5053236;28;20916;-62
2024/01/24 12:40:59;;;;;;;23.55;5.05;;;;;;;;;;5052322;28;20410;-62
2024/01/24 12:43:25;;;;;;;20.73;4.43;;;;;;;;;;5035115;28;20507;-62
2024/01/24 12:45:50;;;;;;;17.70;4.20;;;;;;;;;;5052986;28;20419;-62
2024/01/24 12:48:15;;;;;;;23.70;4.53;;;;;;;;;;5051693;28;20397;-62
2024/01/24 12:50:40;;;;;;;21.83;5.23;;;;;;;;;;5052622;28;20397;-62
2024/01/24 12:53:06;;;;;;;22.63;4.93;;;;;;;;;;5051431;28;20425;-63
2024/01/24 12:55:31;;;;;;;20.53;4.63;;;;;;;;;;5053174;28;20488;-62
2024/01/24 12:57:56;;;;;;;19.80;4.80;;;;;;;;;;5051807;28;20393;-62
2024/01/24 13:00:22;;;;;;;22.37;4.90;;;;;;;;;;5036331;28;20739;-62
2024/01/24 13:02:47;;;;;;;22.77;4.63;;;;;;;;;;5053634;28;20401;-62
2024/01/24 13:05:12;;;;;;;21.57;4.60;;;;;;;;;;5051759;28;20408;-62
2024/01/24 13:07:39;;;;;;;22.53;4.50;;;;;;;;;;5051861;28;20413;-62
2024/01/24 13:10:05;;;;;;;24.02;4.90;;;;;;;;;;5034789;28;20405;-62
2024/01/24 13:12:30;;;;;;;21.42;4.30;;;;;;;;;;5052466;28;20420;-62
2024/01/24 13:14:56;;;;;;;22.10;4.90;;;;;;;;;;5051393;28;20429;-62
2024/01/24 13:17:23;;;;;;;21.50;4.77;;;;;;;;;;5071011;28;20384;-62
2024/01/24 13:19:48;;;;;;;23.08;4.68;;;;;;;;;;5072116;28;20759;-62
2024/01/24 13:22:13;;;;;;;19.50;3.90;;;;;;;;;;5071093;28;20459;-62
2024/01/24 13:24:39;;;;;;;20.10;4.47;;;;;;;;;;5072062;28;20410;-62
2024/01/24 13:27:04;;;;;;;20.83;4.63;;;;;;;;;;5071765;28;20400;-62
2024/01/24 13:29:29;;;;;;;20.97;4.70;;;;;;;;;;5071017;28;20410;-63
2024/01/24 13:31:55;;;;;;;19.70;4.60;;;;;;;;;;5072193;28;20396;-63
2024/01/24 13:34:20;;;;;;;22.67;4.70;;;;;;;;;;5071299;28;20396;-63
2024/01/24 13:36:46;;;;;;;22.37;4.60;;;;;;;;;;5071222;28;20475;-63
2024/01/24 13:39:14;;;;;;;19.25;4.35;;;;;;;;;;5053529;28;20887;-62
2024/01/24 13:41:41;;;;;;;22.50;4.50;;;;;;;;;;5071943;28;20402;-62
2024/01/24 13:44:07;;;;;;;22.58;4.78;;;;;;;;;;5068344;28;20476;-63
2024/01/24 13:46:32;;;;;;;22.92;4.75;;;;;;;;;;5051897;28;20979;-63
2024/01/24 13:48:58;;;;;;;23.20;4.50;;;;;;;;;;5050849;28;20976;-62
2024/01/24 13:51:23;;;;;;;18.08;4.25;;;;;;;;;;5049603;28;20517;-62
2024/01/24 13:53:49;;;;;;;20.23;4.50;;;;;;;;;;5050862;28;20413;-62
2024/01/24 13:56:14;;;;;;;22.93;4.67;;;;;;;;;;5050831;28;20489;-62
2024/01/24 13:58:39;;;;;;;23.03;4.60;;;;;;;;;;5050968;28;20405;-62
2024/01/24 14:01:05;;;;;;;20.98;4.30;;;;;;;;;;5050772;28;20458;-62
2024/01/24 14:03:30;;;;;;;22.40;4.60;;;;;;;;;;5050488;28;20393;-62
2024/01/24 14:05:55;;;;;;;21.80;4.80;;;;;;;;;;5051607;28;20490;-62
2024/01/24 14:08:21;;;;;;;18.20;4.27;;;;;;;;;;5050644;28;20378;-63
2024/01/24 14:10:46;;;;;;;21.23;4.07;;;;;;;;;;5050113;28;20394;-62
2024/01/24 14:13:11;;;;;;;24.25;4.78;;;;;;;;;;5050982;28;20766;-62
2024/01/24 14:15:38;;;;;;;20.97;4.50;;;;;;;;;;5051149;28;20889;-63
2024/01/24 14:18:03;;;;;;;21.45;4.68;;;;;;;;;;5050281;28;20397;-62
2024/01/24 14:20:29;;;;;;;22.05;4.93;;;;;;;;;;5051273;28;20485;-62
2024/01/24 14:22:54;;;;;;;24.53;4.60;;;;;;;;;;5051198;28;20393;-63
2024/01/24 14:25:19;;;;;;;20.67;4.17;;;;;;;;;;5049194;28;20418;-63